Time;durP1;ratioP1;P1;durP2;ratioP2;P2;SDS_P1;SDS_P2;PMS_P1;PMS_P2;Temp;Humidity;BMP_temperature;BMP_pressure;BME280_temperature;BME280_humidity;BME280_pressure;Samples;Min_cycle;Max_cycle;Signal;HPM_P1;HPM_P2
2021/10/01 00:01:39;;;;;;;;;;;13.00;99.90;;;;;;5115250;28;20006;-84
2021/10/01 00:04:08;;;;;;;;;;;13.00;99.90;;;;;;5115103;28;19942;-85
2021/10/01 00:06:36;;;;;;;;;;;13.00;99.90;;;;;;5115160;28;19924;-85
2021/10/01 00:09:04;;;;;;;;;;;13.00;99.90;;;;;;5114751;28;19924;-86
2021/10/01 00:11:33;;;;;;;;;;;13.00;99.90;;;;;;5115522;28;19923;-85
2021/10/01 00:14:02;;;;;;;;;;;13.00;99.90;;;;;;5115112;28;20267;-85
2021/10/01 00:16:30;;;;;;;;;;;13.00;99.90;;;;;;5116650;28;20259;-85
2021/10/01 00:18:57;;;;;;;;;;;13.00;99.90;;;;;;5118824;28;19934;-85
2021/10/01 00:21:24;;;;;;;;;;;13.00;99.90;;;;;;5118646;28;19945;-85
2021/10/01 00:23:50;;;;;;;;;;;13.00;99.90;;;;;;5118744;28;20339;-85
2021/10/01 00:26:17;;;;;;;;;;;13.00;99.90;;;;;;5118611;28;19934;-84
2021/10/01 00:28:45;;;;;;;;;;;13.00;99.90;;;;;;5118467;28;19924;-85
2021/10/01 00:31:12;;;;;;;;;;;13.00;99.90;;;;;;5118495;28;19934;-86
2021/10/01 00:33:39;;;;;;;;;;;13.00;99.90;;;;;;5118264;28;19923;-85
2021/10/01 00:36:06;;;;;;;;;;;13.00;99.90;;;;;;5118340;28;19932;-85
2021/10/01 00:38:33;;;;;;;;;;;12.90;99.90;;;;;;5117672;28;19923;-85
2021/10/01 00:41:00;;;;;;;;;;;13.00;99.90;;;;;;5118628;28;19924;-85
2021/10/01 00:43:26;;;;;;;;;;;13.00;99.90;;;;;;5118352;28;19937;-85
2021/10/01 00:45:55;;;;;;;;;;;13.00;99.90;;;;;;5118279;28;19935;-85
2021/10/01 00:48:22;;;;;;;;;;;13.00;99.90;;;;;;5118182;28;19923;-85
2021/10/01 00:50:48;;;;;;;;;;;13.00;99.90;;;;;;5118185;28;19930;-85
2021/10/01 00:53:15;;;;;;;;;;;13.00;99.90;;;;;;5117905;28;19934;-84
2021/10/01 00:55:42;;;;;;;;;;;13.00;99.90;;;;;;5118077;28;19923;-82
2021/10/01 00:58:09;;;;;;;;;;;12.90;99.90;;;;;;5118911;28;19932;-86
2021/10/01 01:00:42;;;;;;;;;;;12.90;99.90;;;;;;5118263;28;20036;-79
2021/10/01 01:03:10;;;;;;;;;;;13.00;99.90;;;;;;5117928;28;19930;-86
2021/10/01 01:05:50;;;;;;;;;;;13.00;99.90;;;;;;5117756;28;19938;-85
2021/10/01 01:08:17;;;;;;;;;;;13.00;99.90;;;;;;5117775;28;19938;-85
2021/10/01 01:10:46;;;;;;;;;;;13.00;99.90;;;;;;5117797;27;19934;-86
2021/10/01 01:13:15;;;;;;;;;;;13.00;99.90;;;;;;5117903;28;19923;-85
2021/10/01 01:15:42;;;;;;;;;;;13.00;99.90;;;;;;5117641;28;20374;-84
2021/10/01 01:18:13;;;;;;;;;;;13.00;99.90;;;;;;5117432;28;19924;-85
2021/10/01 01:20:42;;;;;;;;;;;13.00;99.90;;;;;;5117775;28;19924;-86
2021/10/01 01:23:23;;;;;;;;;;;13.00;99.90;;;;;;5117503;28;19924;-86
2021/10/01 01:25:55;;;;;;;;;;;13.00;99.90;;;;;;5117472;28;19924;-86
2021/10/01 01:28:32;;;;;;;;;;;13.00;99.90;;;;;;5117564;28;19924;-87
2021/10/01 01:31:01;;;;;;;;;;;13.00;99.90;;;;;;5117668;28;19923;-87
2021/10/01 01:33:31;;;;;;;;;;;13.00;99.90;;;;;;5117435;28;19924;-88
2021/10/01 01:35:59;;;;;;;;;;;13.00;99.90;;;;;;5117433;28;19927;-87
2021/10/01 01:38:27;;;;;;;;;;;13.00;99.90;;;;;;5117465;28;19923;-88
2021/10/01 01:40:57;;;;;;;;;;;13.00;99.90;;;;;;5117579;28;19934;-88
2021/10/01 01:43:24;;;;;;;;;;;13.00;99.90;;;;;;5116981;28;19924;-90
2021/10/01 01:45:50;;;;;;;;;;;13.00;99.90;;;;;;5116827;28;20279;-89
2021/10/01 01:48:17;;;;;;;;;;;13.00;99.90;;;;;;5117414;28;19928;-90
2021/10/01 01:50:46;;;;;;;;;;;13.00;99.90;;;;;;5117347;28;19923;-92
2021/10/01 01:53:13;;;;;;;;;;;13.00;99.90;;;;;;5117511;28;19923;-92
2021/10/01 01:55:40;;;;;;;;;;;13.00;99.90;;;;;;5117402;28;19923;-92
2021/10/01 01:58:06;;;;;;;;;;;13.00;99.90;;;;;;5117299;28;19938;-92
2021/10/01 02:00:34;;;;;;;;;;;13.10;99.90;;;;;;5117373;28;20247;-91
2021/10/01 02:03:00;;;;;;;;;;;13.10;99.90;;;;;;5117182;28;20255;-90
2021/10/01 02:05:27;;;;;;;;;;;13.00;99.90;;;;;;5116930;28;20271;-90
2021/10/01 02:07:56;;;;;;;;;;;13.10;99.90;;;;;;5116771;28;19934;-90
2021/10/01 02:10:23;;;;;;;;;;;13.00;99.90;;;;;;5116796;28;20358;-90
2021/10/01 02:12:51;;;;;;;;;;;13.10;99.90;;;;;;5116891;28;19924;-90
2021/10/01 02:15:18;;;;;;;;;;;13.00;99.90;;;;;;5116836;28;19927;-90
2021/10/01 02:17:45;;;;;;;;;;;13.00;99.90;;;;;;5116754;28;19929;-90
2021/10/01 02:20:12;;;;;;;;;;;13.00;99.90;;;;;;5117090;28;19924;-91
2021/10/01 02:22:39;;;;;;;;;;;13.00;99.90;;;;;;5116641;28;19923;-91
2021/10/01 02:25:34;;;;;;;;;;;13.10;99.90;;;;;;5116811;28;20169;-91
2021/10/01 02:27:53;;;;;;;;;;;13.00;99.90;;;;;;5116281;28;19923;-90
2021/10/01 02:30:20;;;;;;;;;;;13.10;99.90;;;;;;5116460;28;20323;-90
2021/10/01 02:32:48;;;;;;;;;;;13.10;99.90;;;;;;5116651;28;19923;-91
2021/10/01 02:35:15;;;;;;;;;;;13.00;99.90;;;;;;5116348;28;20274;-89
2021/10/01 02:37:42;;;;;;;;;;;13.00;99.90;;;;;;5116325;28;20363;-90
2021/10/01 02:40:11;;;;;;;;;;;13.00;99.90;;;;;;5115789;28;20348;-92
2021/10/01 02:42:38;;;;;;;;;;;12.10;99.90;;;;;;5116402;28;19938;-90
2021/10/01 02:45:05;;;;;;;;;;;13.00;99.90;;;;;;5116305;28;19923;-89
2021/10/01 02:47:32;;;;;;;;;;;13.00;99.90;;;;;;5116242;28;20294;-88
2021/10/01 02:49:59;;;;;;;;;;;13.00;99.90;;;;;;5116074;28;19924;-89
2021/10/01 02:52:27;;;;;;;;;;;12.90;99.90;;;;;;5115999;28;19928;-89
2021/10/01 02:54:56;;;;;;;;;;;13.00;99.90;;;;;;5116137;28;19934;-87
2021/10/01 02:57:24;;;;;;;;;;;12.90;99.90;;;;;;5115913;28;19924;-91
2021/10/01 02:59:51;;;;;;;;;;;12.90;99.90;;;;;;5115721;28;19923;-89
2021/10/01 03:02:20;;;;;;;;;;;12.90;99.90;;;;;;5115887;28;19928;-89
2021/10/01 03:04:50;;;;;;;;;;;12.90;99.90;;;;;;5115772;28;19924;-88
2021/10/01 03:07:17;;;;;;;;;;;12.90;99.90;;;;;;5116058;28;19924;-87
2021/10/01 03:09:46;;;;;;;;;;;12.90;99.90;;;;;;5115628;28;20350;-88
2021/10/01 03:12:14;;;;;;;;;;;12.80;99.90;;;;;;5115900;28;19930;-88
2021/10/01 03:14:44;;;;;;;;;;;12.90;99.90;;;;;;5115559;28;19930;-88
2021/10/01 03:17:12;;;;;;;;;;;12.80;99.90;;;;;;5115717;28;19934;-87
2021/10/01 03:19:38;;;;;;;;;;;12.80;99.90;;;;;;5115715;28;19924;-87
2021/10/01 03:22:05;;;;;;;;;;;12.90;99.90;;;;;;5115850;28;19946;-88
2021/10/01 03:24:32;;;;;;;;;;;12.90;99.90;;;;;;5115462;28;19977;-86
2021/10/01 03:26:59;;;;;;;;;;;12.90;99.90;;;;;;5114928;28;19924;-87
2021/10/01 03:29:26;;;;;;;;;;;12.90;99.90;;;;;;5115447;28;20028;-88
2021/10/01 03:31:55;;;;;;;;;;;12.80;99.90;;;;;;5115348;28;19924;-89
2021/10/01 03:34:22;;;;;;;;;;;12.80;99.90;;;;;;5115367;28;19934;-87
2021/10/01 03:36:48;;;;;;;;;;;12.80;99.90;;;;;;5115470;28;19928;-88
2021/10/01 03:39:15;;;;;;;;;;;12.80;99.90;;;;;;5115381;28;19934;-90
2021/10/01 03:41:42;;;;;;;;;;;12.80;99.90;;;;;;5116049;28;20259;-87
2021/10/01 03:44:09;;;;;;;;;;;12.70;99.90;;;;;;5118304;28;19931;-84
2021/10/01 03:46:36;;;;;;;;;;;12.80;99.90;;;;;;5116475;28;19937;-82
2021/10/01 03:49:04;;;;;;;;;;;12.80;99.90;;;;;;5117541;28;19930;-76
2021/10/01 03:51:31;;;;;;;;;;;12.80;99.90;;;;;;5117137;28;19924;-88
2021/10/01 03:53:58;;;;;;;;;;;12.80;99.90;;;;;;5119301;28;19928;-88
2021/10/01 03:56:25;;;;;;;;;;;12.80;99.90;;;;;;5119257;28;20244;-88
2021/10/01 03:58:52;;;;;;;;;;;12.80;99.90;;;;;;5119423;28;19923;-90
2021/10/01 04:01:19;;;;;;;;;;;12.80;99.90;;;;;;5119498;28;19923;-92
2021/10/01 04:03:46;;;;;;;;;;;12.70;99.90;;;;;;5119373;28;19934;-92
2021/10/01 04:06:14;;;;;;;;;;;12.70;99.90;;;;;;5119614;28;19924;-90
2021/10/01 04:08:41;;;;;;;;;;;12.80;99.90;;;;;;5119186;28;19924;-88
2021/10/01 04:11:08;;;;;;;;;;;12.80;99.90;;;;;;5118994;28;19936;-89
2021/10/01 04:13:35;;;;;;;;;;;12.70;99.90;;;;;;5119099;28;20258;-89
2021/10/01 04:16:02;;;;;;;;;;;12.70;99.90;;;;;;5118876;28;19924;-88
2021/10/01 04:18:29;;;;;;;;;;;12.80;99.90;;;;;;5119014;28;19934;-88
2021/10/01 04:20:56;;;;;;;;;;;12.70;99.90;;;;;;5118712;28;19935;-86
2021/10/01 04:23:24;;;;;;;;;;;12.70;99.90;;;;;;5118853;28;20022;-89
2021/10/01 04:25:51;;;;;;;;;;;12.80;99.90;;;;;;5118840;28;19924;-87
2021/10/01 04:28:18;;;;;;;;;;;12.70;99.90;;;;;;5118744;28;19927;-79
2021/10/01 04:30:48;;;;;;;;;;;12.70;99.90;;;;;;5118873;28;19991;-84
2021/10/01 04:33:18;;;;;;;;;;;12.70;99.90;;;;;;5118510;28;19978;-92
2021/10/01 04:35:45;;;;;;;;;;;12.70;99.90;;;;;;5118821;28;19928;-89
2021/10/01 04:38:12;;;;;;;;;;;12.70;99.90;;;;;;5119012;28;19924;-90
2021/10/01 04:40:40;;;;;;;;;;;12.70;99.90;;;;;;5118442;28;20274;-89
2021/10/01 04:43:07;;;;;;;;;;;12.70;99.90;;;;;;5118349;28;20348;-89
2021/10/01 04:45:34;;;;;;;;;;;12.70;99.90;;;;;;5118265;28;20449;-89
2021/10/01 04:48:03;;;;;;;;;;;12.70;99.90;;;;;;5118528;28;20279;-88
2021/10/01 04:50:30;;;;;;;;;;;12.70;99.90;;;;;;5118188;28;19924;-87
2021/10/01 04:52:56;;;;;;;;;;;12.60;99.90;;;;;;5118157;28;19924;-87
2021/10/01 04:55:23;;;;;;;;;;;12.60;99.90;;;;;;5117967;28;19924;-88
2021/10/01 04:57:53;;;;;;;;;;;12.60;99.90;;;;;;5118084;28;19924;-88
2021/10/01 05:00:21;;;;;;;;;;;12.60;99.90;;;;;;5118016;28;19931;-88
2021/10/01 05:02:49;;;;;;;;;;;12.60;99.90;;;;;;5117569;28;20365;-85
2021/10/01 05:05:17;;;;;;;;;;;12.50;99.90;;;;;;5118015;28;20299;-88
2021/10/01 05:07:44;;;;;;;;;;;12.50;99.90;;;;;;5117794;28;20011;-88
2021/10/01 05:10:12;;;;;;;;;;;12.60;99.90;;;;;;5117822;28;20378;-88
2021/10/01 05:12:40;;;;;;;;;;;12.50;99.90;;;;;;5118006;28;19923;-87
2021/10/01 05:15:12;;;;;;;;;;;12.50;99.90;;;;;;5117658;28;20332;-89
2021/10/01 05:17:40;;;;;;;;;;;12.50;99.90;;;;;;5117905;27;20361;-89
2021/10/01 05:20:09;;;;;;;;;;;12.50;99.90;;;;;;5117711;28;19935;-87
2021/10/01 05:22:37;;;;;;;;;;;12.50;99.90;;;;;;5117458;28;19934;-88
2021/10/01 05:25:06;;;;;;;;;;;12.50;99.90;;;;;;5117610;28;19923;-89
2021/10/01 05:27:33;;;;;;;;;;;12.50;99.90;;;;;;5117722;28;19923;-88
2021/10/01 05:30:02;;;;;;;;;;;12.50;99.90;;;;;;5117357;28;19930;-88
2021/10/01 05:32:31;;;;;;;;;;;12.50;99.90;;;;;;5117260;28;20367;-88
2021/10/01 05:34:59;;;;;;;;;;;12.50;99.90;;;;;;5117176;28;20261;-87
2021/10/01 05:37:28;;;;;;;;;;;12.40;99.90;;;;;;5117191;28;20244;-88
2021/10/01 05:39:56;;;;;;;;;;;12.40;99.90;;;;;;5117505;28;19924;-88
2021/10/01 05:42:24;;;;;;;;;;;12.40;99.90;;;;;;5117406;28;19957;-88
2021/10/01 05:44:52;;;;;;;;;;;12.40;99.90;;;;;;5117441;28;20267;-88
2021/10/01 05:47:21;;;;;;;;;;;12.40;99.90;;;;;;5117207;28;19934;-87
2021/10/01 05:50:01;;;;;;;;;;;12.40;99.90;;;;;;5116913;28;19924;-87
2021/10/01 05:52:38;;;;;;;;;;;12.40;99.90;;;;;;5117065;28;19923;-88
2021/10/01 05:55:08;;;;;;;;;;;12.40;99.90;;;;;;5116956;28;19928;-88
2021/10/01 05:57:37;;;;;;;;;;;12.40;99.90;;;;;;5116676;28;19924;-87
2021/10/01 06:00:05;;;;;;;;;;;12.40;99.90;;;;;;5116896;28;19934;-88
2021/10/01 06:02:34;;;;;;;;;;;12.40;99.90;;;;;;5116696;28;19934;-87
2021/10/01 06:05:03;;;;;;;;;;;12.40;99.90;;;;;;5116728;28;19924;-86
2021/10/01 06:07:30;;;;;;;;;;;12.40;99.90;;;;;;5116845;28;19924;-88
2021/10/01 06:09:57;;;;;;;;;;;12.40;99.90;;;;;;5116631;28;19934;-87
2021/10/01 06:12:24;;;;;;;;;;;12.40;99.90;;;;;;5116549;28;19934;-88
2021/10/01 06:14:56;;;;;;;;;;;12.30;99.90;;;;;;5115409;28;19934;-87
2021/10/01 06:17:24;;;;;;;;;;;12.30;99.90;;;;;;5116559;28;20035;-87
2021/10/01 06:19:53;;;;;;;;;;;12.30;99.90;;;;;;5116579;28;19933;-87
2021/10/01 06:22:22;;;;;;;;;;;12.30;99.90;;;;;;5116469;28;20347;-88
2021/10/01 06:24:50;;;;;;;;;;;12.40;99.90;;;;;;5116249;28;19969;-88
2021/10/01 06:27:19;;;;;;;;;;;12.30;99.90;;;;;;5116560;28;20245;-88
2021/10/01 06:29:46;;;;;;;;;;;12.30;99.90;;;;;;5116258;28;19927;-88
2021/10/01 06:32:13;;;;;;;;;;;12.30;99.90;;;;;;5116433;28;19935;-88
2021/10/01 06:34:40;;;;;;;;;;;12.30;99.90;;;;;;5115947;28;19934;-88
2021/10/01 06:37:06;;;;;;;;;;;12.30;99.90;;;;;;5116103;28;19928;-88
2021/10/01 06:39:35;;;;;;;;;;;12.30;99.90;;;;;;5116086;28;20316;-88
2021/10/01 06:42:02;;;;;;;;;;;12.20;99.90;;;;;;5115535;28;19934;-88
2021/10/01 06:44:31;;;;;;;;;;;12.20;99.90;;;;;;5116285;28;19928;-88
2021/10/01 06:47:02;;;;;;;;;;;12.20;99.90;;;;;;5116487;28;19932;-88
2021/10/01 06:49:44;;;;;;;;;;;12.20;99.90;;;;;;5116216;28;20018;-88
2021/10/01 07:36:49;;;;;;;;;;;12.20;99.90;;;;;;5119933;28;20333;-87
2021/10/01 08:20:25;;;;;;;;;;;12.40;99.90;;;;;;5098457;28;19923;-91
2021/10/01 08:22:52;;;;;;;;;;;12.40;99.90;;;;;;5119051;28;20324;-91
2021/10/01 08:25:19;;;;;;;;;;;12.30;99.90;;;;;;5119096;28;20257;-90
2021/10/01 08:27:46;;;;;;;;;;;12.30;99.90;;;;;;5119480;28;20278;-89
2021/10/01 08:30:13;;;;;;;;;;;12.30;99.90;;;;;;5118917;28;20267;-90
2021/10/01 08:32:41;;;;;;;;;;;12.30;99.90;;;;;;5118613;28;19924;-90
2021/10/01 08:35:09;;;;;;;;;;;12.30;99.90;;;;;;5118590;27;20335;-89
2021/10/01 08:37:36;;;;;;;;;;;12.30;99.90;;;;;;5117959;28;20030;-89
2021/10/01 08:40:03;;;;;;;;;;;12.20;99.90;;;;;;5118372;27;19923;-89
2021/10/01 08:42:31;;;;;;;;;;;12.30;99.90;;;;;;5118715;28;19928;-88
2021/10/01 08:44:58;;;;;;;;;;;12.30;99.90;;;;;;5118335;28;19924;-88
2021/10/01 08:47:24;;;;;;;;;;;12.20;99.90;;;;;;5118565;28;20348;-89
2021/10/01 08:49:51;;;;;;;;;;;12.20;99.90;;;;;;5118308;28;20272;-87
2021/10/01 08:52:20;;;;;;;;;;;12.20;99.90;;;;;;5118130;28;19931;-87
2021/10/01 08:54:46;;;;;;;;;;;12.10;99.90;;;;;;5118110;28;19934;-87
2021/10/01 08:57:13;;;;;;;;;;;12.10;99.90;;;;;;5118483;28;19935;-87
2021/10/01 08:59:40;;;;;;;;;;;12.10;99.90;;;;;;5118009;28;19928;-87
2021/10/01 09:02:07;;;;;;;;;;;12.00;99.90;;;;;;5117869;28;19924;-87
2021/10/01 09:04:34;;;;;;;;;;;12.10;99.90;;;;;;5118065;28;19924;-87
2021/10/01 09:07:02;;;;;;;;;;;12.10;99.90;;;;;;5118086;28;20268;-87
2021/10/01 09:09:36;;;;;;;;;;;12.20;99.90;;;;;;5117675;28;20016;-86
2021/10/01 09:12:03;;;;;;;;;;;12.20;99.90;;;;;;5117589;28;20411;-86
2021/10/01 09:14:30;;;;;;;;;;;12.30;99.90;;;;;;5117627;28;19938;-86
2021/10/01 09:16:58;;;;;;;;;;;12.30;99.90;;;;;;5117536;28;19924;-85
2021/10/01 09:19:25;;;;;;;;;;;12.20;99.90;;;;;;5117914;28;19932;-85
2021/10/01 09:21:52;;;;;;;;;;;12.20;99.90;;;;;;5117663;28;19923;-85
2021/10/01 09:24:19;;;;;;;;;;;12.20;99.90;;;;;;5117416;28;19923;-85
2021/10/01 09:26:49;;;;;;;;;;;12.20;99.90;;;;;;5117505;28;20359;-85
2021/10/01 09:29:23;;;;;;;;;;;12.30;99.90;;;;;;5117415;28;19923;-84
2021/10/01 09:31:50;;;;;;;;;;;12.40;99.90;;;;;;5117833;28;19935;-84
2021/10/01 09:34:18;;;;;;;;;;;12.50;99.90;;;;;;5117140;28;19935;-84
2021/10/01 09:36:45;;;;;;;;;;;12.50;99.90;;;;;;5117156;28;20344;-85
2021/10/01 09:39:24;;;;;;;;;;;12.50;99.90;;;;;;5117376;28;19934;-85
2021/10/01 09:41:53;;;;;;;;;;;12.60;99.90;;;;;;5117437;28;20339;-86
2021/10/01 09:44:20;;;;;;;;;;;12.60;99.90;;;;;;5117022;28;19923;-85
2021/10/01 09:46:47;;;;;;;;;;;12.60;99.90;;;;;;5117029;28;20237;-84
2021/10/01 09:49:15;;;;;;;;;;;12.60;99.90;;;;;;5116383;28;19924;-85
2021/10/01 09:51:47;;;;;;;;;;;12.60;99.90;;;;;;5116988;28;19923;-85
2021/10/01 09:54:14;;;;;;;;;;;12.50;99.90;;;;;;5116978;28;19924;-85
2021/10/01 09:56:41;;;;;;;;;;;12.50;99.90;;;;;;5116994;28;19934;-86
2021/10/01 09:59:10;;;;;;;;;;;12.50;99.90;;;;;;5117020;28;19931;-86
2021/10/01 10:01:37;;;;;;;;;;;12.50;99.90;;;;;;5116750;27;19924;-86
2021/10/01 10:04:13;;;;;;;;;;;12.40;99.90;;;;;;5116767;28;19931;-86
2021/10/01 10:06:42;;;;;;;;;;;12.40;99.90;;;;;;5116820;28;19928;-86
2021/10/01 10:09:09;;;;;;;;;;;12.40;99.90;;;;;;5116450;28;19942;-87
2021/10/01 10:11:38;;;;;;;;;;;12.40;99.90;;;;;;5116640;28;19928;-86
2021/10/01 10:14:05;;;;;;;;;;;12.50;99.90;;;;;;5116701;28;19924;-86
2021/10/01 10:16:33;;;;;;;;;;;12.50;99.90;;;;;;5116542;28;20351;-86
2021/10/01 10:19:00;;;;;;;;;;;12.50;99.90;;;;;;5116535;28;19928;-87
2021/10/01 10:21:27;;;;;;;;;;;12.50;99.90;;;;;;5116494;28;19924;-86
2021/10/01 10:23:55;;;;;;;;;;;12.60;99.90;;;;;;5116428;28;19924;-87
2021/10/01 10:26:22;;;;;;;;;;;12.60;99.90;;;;;;5116517;28;19935;-86
2021/10/01 10:28:49;;;;;;;;;;;12.60;99.90;;;;;;5116461;28;19924;-86
2021/10/01 10:31:16;;;;;;;;;;;12.50;99.90;;;;;;5116321;28;19923;-86
2021/10/01 10:33:44;;;;;;;;;;;12.50;99.90;;;;;;5116447;28;19924;-86
2021/10/01 10:36:31;;;;;;;;;;;12.40;99.90;;;;;;5116049;28;20272;-85
2021/10/01 10:38:58;;;;;;;;;;;12.30;99.90;;;;;;5116279;28;19934;-86
2021/10/01 10:41:25;;;;;;;;;;;12.30;99.90;;;;;;5116170;28;19934;-86
2021/10/01 10:43:52;;;;;;;;;;;12.20;99.90;;;;;;5116036;28;19934;-86
2021/10/01 10:46:39;;;;;;;;;;;12.20;99.90;;;;;;5115957;28;19930;-86
2021/10/01 10:49:21;;;;;;;;;;;12.20;99.90;;;;;;5115858;28;19938;-85
2021/10/01 10:52:06;;;;;;;;;;;12.30;99.90;;;;;;5114878;28;19932;-86
2021/10/01 10:54:34;;;;;;;;;;;12.40;99.90;;;;;;5116167;28;19924;-86
2021/10/01 10:57:21;;;;;;;;;;;12.50;99.90;;;;;;5115691;28;19924;-86
2021/10/01 10:59:48;;;;;;;;;;;12.60;99.90;;;;;;5115970;28;19951;-86
2021/10/01 11:02:19;;;;;;;;;;;12.60;99.90;;;;;;5115986;28;19936;-85
2021/10/01 11:04:48;;;;;;;;;;;12.60;99.90;;;;;;5115715;28;20367;-87
2021/10/01 11:07:30;;;;;;;;;;;12.60;99.90;;;;;;5115787;28;19934;-85
2021/10/01 11:10:03;;;;;;;;;;;12.60;99.90;;;;;;5115373;28;19923;-85
2021/10/01 11:12:32;;;;;;;;;;;12.60;99.90;;;;;;5115247;28;20235;-86
2021/10/01 11:15:20;;;;;;;;;;;12.60;99.90;;;;;;5115792;28;20267;-85
2021/10/01 11:18:14;;;;;;;;;;;12.60;99.90;;;;;;5115477;28;19973;-84
2021/10/01 11:20:41;;;;;;;;;;;12.60;99.90;;;;;;5093643;28;19979;-85
2021/10/01 11:23:15;;;;;;;;;;;12.70;99.90;;;;;;5093623;28;19931;-84
2021/10/01 11:25:43;;;;;;;;;;;12.70;99.90;;;;;;5093584;28;19935;-84
2021/10/01 11:28:12;;;;;;;;;;;12.70;99.90;;;;;;5093718;28;20129;-85
2021/10/01 11:30:39;;;;;;;;;;;12.80;99.90;;;;;;5093710;28;19930;-85
2021/10/01 11:33:07;;;;;;;;;;;12.80;99.90;;;;;;5093452;28;19936;-85
2021/10/01 11:35:34;;;;;;;;;;;12.90;99.90;;;;;;5093350;28;19924;-85
2021/10/01 11:38:01;;;;;;;;;;;12.90;99.90;;;;;;5093457;28;19935;-85
2021/10/01 11:40:28;;;;;;;;;;;12.90;99.90;;;;;;5093355;28;19931;-85
2021/10/01 11:42:57;;;;;;;;;;;13.00;99.90;;;;;;5093614;28;19924;-85
2021/10/01 11:45:26;;;;;;;;;;;12.90;99.90;;;;;;5093376;28;20030;-85
2021/10/01 11:47:55;;;;;;;;;;;12.90;99.90;;;;;;5093233;28;19924;-84
2021/10/01 11:50:30;;;;;;;;;;;12.80;99.90;;;;;;5093127;28;20360;-85
2021/10/01 11:52:59;;;;;;;;;;;12.70;99.90;;;;;;5093245;28;19924;-85
2021/10/01 11:55:27;;;;;;;;;;;12.60;99.90;;;;;;5095201;28;19924;-85
2021/10/01 11:58:09;;;;;;;;;;;12.60;99.90;;;;;;5115178;28;20370;-84
2021/10/01 12:00:37;;;;;;;;;;;12.50;99.90;;;;;;5115353;27;19989;-85
2021/10/01 12:03:06;;;;;;;;;;;12.50;99.90;;;;;;5115221;28;19930;-85
2021/10/01 12:05:34;;;;;;;;;;;12.40;99.90;;;;;;5114922;28;19924;-85
2021/10/01 12:08:04;;;;;;;;;;;12.40;99.90;;;;;;5114535;28;19924;-83
2021/10/01 12:10:33;;;;;;;;;;;12.30;99.90;;;;;;5115051;28;19939;-83
2021/10/01 12:13:13;;;;;;;;;;;12.30;99.90;;;;;;5117805;28;19934;-84
2021/10/01 12:15:45;;;;;;;;;;;12.40;99.90;;;;;;5119023;28;19928;-85
2021/10/01 12:18:30;;;;;;;;;;;12.40;99.90;;;;;;5119026;28;19924;-85
2021/10/01 12:20:58;;;;;;;;;;;12.40;99.90;;;;;;5118991;28;19946;-85
2021/10/01 12:23:26;;;;;;;;;;;12.40;99.90;;;;;;5118767;28;19939;-84
2021/10/01 12:25:54;;;;;;;;;;;12.40;99.90;;;;;;5118687;28;19924;-85
2021/10/01 12:28:23;;;;;;;;;;;12.40;99.90;;;;;;5118706;28;19930;-84
2021/10/01 12:31:01;;;;;;;;;;;12.50;99.90;;;;;;5118498;28;19924;-85
2021/10/01 12:33:28;;;;;;;;;;;12.60;99.90;;;;;;5118659;28;19971;-86
2021/10/01 12:35:55;;;;;;;;;;;12.70;99.90;;;;;;5118039;28;19934;-86
2021/10/01 12:38:22;;;;;;;;;;;12.80;99.90;;;;;;5117908;28;19934;-86
2021/10/01 12:41:03;;;;;;;;;;;12.80;99.90;;;;;;5118607;28;19924;-85
2021/10/01 12:43:43;;;;;;;;;;;12.80;99.90;;;;;;5118244;28;20271;-86
2021/10/01 12:46:09;;;;;;;;;;;12.80;99.90;;;;;;5118602;28;19924;-85
2021/10/01 12:48:36;;;;;;;;;;;12.80;99.90;;;;;;5118445;28;19935;-85
2021/10/01 12:51:03;;;;;;;;;;;12.90;99.90;;;;;;5118416;28;19924;-87
2021/10/01 12:53:32;;;;;;;;;;;12.90;99.90;;;;;;5118531;28;19924;-86
2021/10/01 12:56:13;;;;;;;;;;;13.00;99.90;;;;;;5118045;28;19924;-86
2021/10/01 12:58:41;;;;;;;;;;;13.20;99.90;;;;;;5118372;28;20366;-86
2021/10/01 13:01:18;;;;;;;;;;;13.30;99.90;;;;;;5118172;28;19924;-85
2021/10/01 13:03:48;;;;;;;;;;;13.20;99.90;;;;;;5118172;28;19923;-86
2021/10/01 13:06:35;;;;;;;;;;;13.20;99.90;;;;;;5117956;28;19923;-86
2021/10/01 13:09:02;;;;;;;;;;;13.20;99.90;;;;;;5115755;28;19928;-87
2021/10/01 13:11:29;;;;;;;;;;;13.20;99.90;;;;;;5117951;28;19923;-86
2021/10/01 13:13:56;;;;;;;;;;;13.20;99.90;;;;;;5117869;28;19923;-86
2021/10/01 13:16:27;;;;;;;;;;;13.30;99.90;;;;;;5117704;28;19924;-86
2021/10/01 13:19:02;;;;;;;;;;;13.30;99.90;;;;;;5117724;28;19961;-86
2021/10/01 13:21:29;;;;;;;;;;;13.30;99.90;;;;;;5117611;28;19931;-87
2021/10/01 13:23:56;;;;;;;;;;;13.30;99.90;;;;;;5117611;28;19924;-86
2021/10/01 13:26:24;;;;;;;;;;;13.40;99.90;;;;;;5117763;28;19924;-86
2021/10/01 13:28:52;;;;;;;;;;;13.40;99.90;;;;;;5115195;28;19927;-86
2021/10/01 13:31:21;;;;;;;;;;;13.40;99.90;;;;;;5116663;27;19941;-86
2021/10/01 13:34:04;;;;;;;;;;;13.40;99.90;;;;;;5117202;27;20260;-86
2021/10/01 13:36:44;;;;;;;;;;;13.30;99.90;;;;;;5117243;28;20328;-85
2021/10/01 13:39:12;;;;;;;;;;;13.30;99.90;;;;;;5117418;28;19924;-86
2021/10/01 13:41:43;;;;;;;;;;;13.20;99.90;;;;;;5117168;28;20258;-85
2021/10/01 13:44:15;;;;;;;;;;;13.10;99.90;;;;;;5117176;28;20023;-86
2021/10/01 13:46:43;;;;;;;;;;;13.00;99.90;;;;;;5136413;27;19935;-85
2021/10/01 13:49:11;;;;;;;;;;;13.00;99.90;;;;;;5138046;27;19924;-86
2021/10/01 13:51:40;;;;;;;;;;;13.00;99.90;;;;;;5137733;27;19924;-86
2021/10/01 13:54:08;;;;;;;;;;;13.10;99.90;;;;;;5137548;27;19939;-86
2021/10/01 13:56:36;;;;;;;;;;;13.00;99.90;;;;;;5137254;27;20331;-86
2021/10/01 13:59:04;;;;;;;;;;;12.90;99.90;;;;;;5137206;27;19923;-86
2021/10/01 14:01:32;;;;;;;;;;;13.00;99.90;;;;;;5137582;27;19934;-86
2021/10/01 14:04:01;;;;;;;;;;;13.00;99.90;;;;;;5137443;27;19933;-86
2021/10/01 14:06:29;;;;;;;;;;;13.10;99.90;;;;;;5137477;27;19923;-86
2021/10/01 14:08:58;;;;;;;;;;;13.20;99.90;;;;;;5136857;27;20272;-86
2021/10/01 14:11:27;;;;;;;;;;;13.30;99.90;;;;;;5137140;27;19972;-86
2021/10/01 14:13:59;;;;;;;;;;;13.30;99.90;;;;;;5137025;27;20350;-86
2021/10/01 14:16:27;;;;;;;;;;;13.30;99.90;;;;;;5137211;27;19923;-86
2021/10/01 14:18:55;;;;;;;;;;;13.20;99.90;;;;;;5137136;27;19923;-86
2021/10/01 14:21:23;;;;;;;;;;;13.20;99.90;;;;;;5137042;27;20255;-85
2021/10/01 14:23:51;;;;;;;;;;;13.10;99.90;;;;;;5136858;27;20267;-85
2021/10/01 14:26:21;;;;;;;;;;;13.10;99.90;;;;;;5136774;27;19930;-86
2021/10/01 14:28:49;;;;;;;;;;;13.10;99.90;;;;;;5136633;27;20355;-85
2021/10/01 14:31:17;;;;;;;;;;;13.10;99.90;;;;;;5136813;27;20465;-82
2021/10/01 14:33:45;;;;;;;;;;;13.10;99.90;;;;;;5136885;27;19923;-85
2021/10/01 14:36:14;;;;;;;;;;;13.00;99.90;;;;;;5136201;27;19924;-86
2021/10/01 14:38:42;;;;;;;;;;;13.00;99.90;;;;;;5136815;27;19923;-85
2021/10/01 14:41:11;;;;;;;;;;;13.10;99.90;;;;;;5136630;27;19930;-86
2021/10/01 14:43:39;;;;;;;;;;;13.00;99.90;;;;;;5136731;27;19934;-85
2021/10/01 14:46:09;;;;;;;;;;;13.10;99.90;;;;;;5136620;27;19988;-86
2021/10/01 14:48:37;;;;;;;;;;;13.00;99.90;;;;;;5136040;27;19923;-84
2021/10/01 14:51:05;;;;;;;;;;;13.10;99.90;;;;;;5136321;27;20252;-85
2021/10/01 14:53:33;;;;;;;;;;;13.10;99.90;;;;;;5136682;27;19923;-85
2021/10/01 14:56:01;;;;;;;;;;;13.10;99.90;;;;;;5136414;27;19924;-84
2021/10/01 14:58:29;;;;;;;;;;;13.00;99.90;;;;;;5136369;27;19923;-84
2021/10/01 15:01:11;;;;;;;;;;;13.00;99.90;;;;;;5136103;27;19923;-83
2021/10/01 15:03:39;;;;;;;;;;;12.90;99.90;;;;;;5136562;27;19934;-83
2021/10/01 15:06:08;;;;;;;;;;;12.90;99.90;;;;;;5136132;27;19927;-85
2021/10/01 15:08:36;;;;;;;;;;;12.90;99.90;;;;;;5136060;27;19923;-84
2021/10/01 15:11:04;;;;;;;;;;;12.90;99.90;;;;;;5136250;27;20359;-84
2021/10/01 15:13:32;;;;;;;;;;;12.90;99.90;;;;;;5136308;27;19923;-85
2021/10/01 15:16:02;;;;;;;;;;;12.90;99.90;;;;;;5136091;27;19923;-85
2021/10/01 15:18:30;;;;;;;;;;;12.80;99.90;;;;;;5136044;27;20351;-83
2021/10/01 15:20:58;;;;;;;;;;;12.80;99.90;;;;;;5136202;27;19923;-84
2021/10/01 15:23:29;;;;;;;;;;;12.80;99.90;;;;;;5136458;27;19923;-84
2021/10/01 15:25:57;;;;;;;;;;;12.70;99.90;;;;;;5136554;27;19996;-83
2021/10/01 15:28:25;;;;;;;;;;;12.70;99.90;;;;;;5135972;27;20351;-83
2021/10/01 15:30:53;;;;;;;;;;;12.70;99.90;;;;;;5135922;27;19923;-83
2021/10/01 15:33:24;;;;;;;;;;;12.60;99.90;;;;;;5136003;27;19934;-84
2021/10/01 15:35:52;;;;;;;;;;;12.60;99.90;;;;;;5136234;27;19934;-85
2021/10/01 15:38:20;;;;;;;;;;;12.60;99.90;;;;;;5135682;27;20263;-84
2021/10/01 15:40:49;;;;;;;;;;;12.70;99.90;;;;;;5135953;27;20029;-84
2021/10/01 15:43:19;;;;;;;;;;;12.70;99.90;;;;;;5136134;27;19923;-83
2021/10/01 15:45:50;;;;;;;;;;;12.70;99.90;;;;;;5136355;27;20365;-83
2021/10/01 15:48:18;;;;;;;;;;;12.80;99.90;;;;;;5139965;27;19996;-82
2021/10/01 15:50:47;;;;;;;;;;;12.80;99.90;;;;;;5140357;27;19923;-84
2021/10/01 15:53:16;;;;;;;;;;;12.80;99.90;;;;;;5140082;27;20242;-84